KSJT/SJT METAR and TAF weather

Enter ICAO airport designator
Station Type Date Time Source
KSJT METAR 2019/04/22 17:51 UTC NOAA

KSJT 221751Z 17009KT 10SM CLR 23/16 A2998 RMK AO2 SLP133 T02330156 10233 20150 58001


Station Type Date Time Source
KSJT Decoded METAR 2019/04/22 17:51 UTC NOAA

MATHIS FIELD, TX, United States (KSJT) 31-21N 100-30W 581M
Apr 22, 2019 - 01:51 PM EDT / 2019.04.22 1751 UTC
Wind: from the S (170 degrees) at 10 MPH (9 KT):0
Visibility: 10 mile(s):0
Sky conditions: clear
Temperature: 73.9 F (23.3 C)
Dew Point: 60.1 F (15.6 C)
Relative Humidity: 61%
Pressure (altimeter): 29.98 in. Hg (1015 hPa)
Pressure tendency: 0.00 inches (0.1 hPa) lower than three hours ago
ob: KSJT 221751Z 17009KT 10SM CLR 23/16 A2998 RMK AO2 SLP133 T02330156 10233 20150 58001
cycle: 18

Station Type Date Time Source
KSJT TAF 2019/04/22 18:22 UTC NOAA

TAF KSJT 221720Z 2218/2318 18010G18KT P6SM SCT030 BKN200
FM230600 15010KT P6SM BKN025
FM230900 16010KT P6SM BKN015

Example: see airport list